Time;durP1;ratioP1;P1;durP2;ratioP2;P2;SDS_P1;SDS_P2;PMS_P1;PMS_P2;Temp;Humidity;BMP_temperature;BMP_pressure;BME280_temperature;BME280_humidity;BME280_pressure;Samples;Min_cycle;Max_cycle;Signal;HPM_P1;HPM_P2
2022/05/23 00:00:12;;;;;;;6.07;3.15;;;;;;;18.49;81.10;98458.22;5074112;28;20901;-82
2022/05/23 00:02:40;;;;;;;4.10;3.25;;;;;;;18.63;79.97;98453.13;5074078;28;20195;-82
2022/05/23 00:05:08;;;;;;;4.75;3.33;;;;;;;18.40;81.27;98440.13;5069075;28;20558;-82
2022/05/23 00:07:37;;;;;;;4.45;2.95;;;;;;;18.28;82.57;98438.75;5063653;28;20609;-82
2022/05/23 00:10:05;;;;;;;4.10;3.22;;;;;;;18.27;83.06;98431.59;5058464;28;20273;-82
2022/05/23 00:12:32;;;;;;;3.95;3.13;;;;;;;18.25;83.15;98414.59;5055972;28;20211;-81
2022/05/23 00:14:59;;;;;;;4.50;3.00;;;;;;;18.30;83.28;98402.16;5060554;28;20223;-81
2022/05/23 00:17:25;;;;;;;5.35;3.55;;;;;;;18.48;81.99;98401.16;5073402;28;20212;-83
2022/05/23 00:19:53;;;;;;;3.75;3.28;;;;;;;18.39;82.82;98394.84;5071895;28;20203;-81
2022/05/23 00:22:20;;;;;;;3.83;3.40;;;;;;;18.61;81.34;98390.63;5060131;28;20204;-82
2022/05/23 00:24:47;;;;;;;4.65;3.15;;;;;;;18.61;81.18;98396.06;5063347;28;20641;-81
2022/05/23 00:27:24;;;;;;;4.65;3.38;;;;;;;18.67;80.79;98380.88;5073617;28;20200;-81
2022/05/23 00:29:51;;;;;;;4.35;3.35;;;;;;;18.70;80.43;98370.50;5073557;28;20663;-81
2022/05/23 00:35:21;;;;;;;4.10;3.25;;;;;;;18.49;81.60;98351.06;5068314;28;20207;-81
2022/05/23 00:37:49;;;;;;;3.65;3.35;;;;;;;18.51;82.33;98341.69;5072999;28;20211;-81
2022/05/23 00:40:29;;;;;;;5.55;3.40;;;;;;;18.57;81.97;98345.63;5068897;28;20198;-81
2022/05/23 00:43:15;;;;;;;4.38;2.60;;;;;;;18.53;82.16;98361.47;5065639;28;20560;-81
2022/05/23 00:45:44;;;;;;;4.05;3.38;;;;;;;18.68;80.98;98371.69;5067040;28;20549;-81
2022/05/23 00:48:12;;;;;;;3.42;3.00;;;;;;;18.69;80.58;98368.78;5060531;28;20219;-81
2022/05/23 00:50:44;;;;;;;4.93;3.65;;;;;;;18.35;82.57;98358.03;5053205;28;20238;-81
2022/05/23 00:53:11;;;;;;;4.53;3.40;;;;;;;18.18;84.53;98361.75;5069905;28;20191;-82
2022/05/23 00:55:43;;;;;;;3.67;3.08;;;;;;;18.21;84.02;98348.66;5058400;28;20329;-81
2022/05/23 00:58:14;;;;;;;3.38;2.97;;;;;;;18.38;82.96;98341.34;5062351;28;20211;-82
2022/05/23 01:00:41;;;;;;;3.30;3.00;;;;;;;18.46;82.25;98338.63;5060540;28;20190;-81
2022/05/23 01:03:12;;;;;;;3.47;3.17;;;;;;;18.51;81.54;98328.06;5072997;28;20198;-81
2022/05/23 01:05:41;;;;;;;3.58;3.28;;;;;;;18.53;81.54;98331.47;5065528;28;20193;-81
2022/05/23 01:08:08;;;;;;;7.93;3.22;;;;;;;18.59;81.10;98329.09;5053083;28;20204;-82
2022/05/23 01:10:38;;;;;;;4.00;3.13;;;;;;;18.64;80.03;98332.16;5064775;28;20205;-81
2022/05/23 01:13:05;;;;;;;4.53;4.00;;;;;;;18.48;81.78;98328.41;5053612;28;20205;-81
2022/05/23 01:15:33;;;;;;;3.50;3.15;;;;;;;18.33;83.38;98324.66;5068113;28;20198;-81
2022/05/23 01:18:00;;;;;;;3.65;3.28;;;;;;;18.30;83.56;98330.47;5073476;28;20219;-81
2022/05/23 01:20:28;;;;;;;5.50;2.83;;;;;;;18.28;84.04;98327.91;5071244;28;20205;-82
2022/05/23 01:23:06;;;;;;;3.85;3.20;;;;;;;18.42;83.36;98320.91;5070704;28;20606;-82
2022/05/23 01:25:35;;;;;;;4.47;2.95;;;;;;;18.57;81.42;98317.53;5054600;28;20196;-82
2022/05/23 01:28:02;;;;;;;3.55;3.17;;;;;;;18.53;81.69;98315.13;5070839;28;20196;-81
2022/05/23 01:30:29;;;;;;;4.57;3.50;;;;;;;18.43;81.94;98319.91;5062079;28;20225;-82
2022/05/23 01:32:56;;;;;;;3.22;2.92;;;;;;;18.42;82.10;98314.63;5053925;28;20554;-82
2022/05/23 01:35:23;;;;;;;4.18;2.90;;;;;;;18.25;83.12;98311.06;5065630;28;20197;-81
2022/05/23 01:37:50;;;;;;;9.30;3.50;;;;;;;18.34;82.57;98299.97;5070897;28;20569;-81
2022/05/23 01:40:18;;;;;;;5.05;3.28;;;;;;;18.28;82.79;98292.47;5069440;28;20556;-81
2022/05/23 01:42:46;;;;;;;3.72;3.33;;;;;;;18.09;84.69;98293.69;5072939;28;20191;-82
2022/05/23 01:45:16;;;;;;;5.18;4.28;;;;;;;18.09;84.63;98284.63;5067659;28;20221;-81
2022/05/23 01:47:43;;;;;;;4.30;3.40;;;;;;;18.19;84.56;98307.13;5065675;28;20212;-82
2022/05/23 01:50:10;;;;;;;5.05;3.85;;;;;;;18.23;84.47;98302.19;5071078;28;20282;-82
2022/05/23 01:52:38;;;;;;;4.10;3.72;;;;;;;18.13;84.98;98299.63;5070992;28;20242;-81
2022/05/23 01:55:06;;;;;;;5.35;3.70;;;;;;;18.21;85.17;98296.06;5069053;28;20339;-80
2022/05/23 01:57:33;;;;;;;4.20;3.80;;;;;;;18.20;85.05;98308.81;5051542;28;20281;-81
2022/05/23 02:02:47;;;;;;;4.57;3.88;;;;;;;18.04;86.30;98336.88;5071239;28;20208;-81
2022/05/23 02:05:15;;;;;;;5.93;4.32;;;;;;;18.33;84.40;98357.38;5064754;28;20200;-81
2022/05/23 02:07:42;;;;;;;4.93;3.58;;;;;;;18.45;82.81;98372.38;5070155;28;20192;-81
2022/05/23 02:10:09;;;;;;;3.92;3.45;;;;;;;18.30;83.94;98385.81;5070083;28;20202;-82
2022/05/23 02:12:36;;;;;;;4.15;3.33;;;;;;;18.28;84.27;98406.06;5070222;28;20207;-82
2022/05/23 02:15:06;;;;;;;3.90;3.55;;;;;;;18.37;84.13;98426.00;5070038;28;20207;-81
2022/05/23 02:17:33;;;;;;;4.20;3.60;;;;;;;18.33;83.34;98442.66;5069108;28;20226;-80
2022/05/23 02:20:00;;;;;;;7.03;3.85;;;;;;;18.33;85.22;98467.19;5071174;28;20206;-81
2022/05/23 02:22:27;;;;;;;4.60;3.40;;;;;;;18.25;92.09;98535.31;5069960;28;20214;-81
2022/05/23 02:24:53;;;;;;;6.10;3.85;;;;;;;17.76;100.00;98599.50;5070902;28;20195;-81
2022/05/23 02:27:20;;;;;;;5.68;4.05;;;;;;;17.12;100.00;98624.13;5067712;28;20528;-81
2022/05/23 02:29:46;;;;;;;5.20;4.70;;;;;;;16.78;100.00;98623.88;5052211;28;20211;-81
2022/05/23 02:32:14;;;;;;;9.02;4.70;;;;;;;16.22;100.00;98615.72;5052880;28;20208;-81
2022/05/23 02:34:41;;;;;;;14.82;6.75;;;;;;;15.00;100.00;98612.75;5060791;28;20206;-82
2022/05/23 02:37:09;;;;;;;9.73;7.25;;;;;;;14.68;100.00;98634.66;5057815;28;20201;-82
2022/05/23 02:39:35;;;;;;;11.50;8.88;;;;;;;14.64;100.00;98630.50;5054813;28;20528;-81
2022/05/23 02:42:02;;;;;;;10.65;8.60;;;;;;;14.57;100.00;98623.94;5054049;28;20204;-79
2022/05/23 02:44:28;;;;;;;16.00;9.15;;;;;;;14.67;100.00;98627.50;5066048;28;20306;-79
2022/05/23 02:46:55;;;;;;;12.80;10.00;;;;;;;14.71;100.00;98612.69;5059251;28;20660;-78
2022/05/23 02:49:23;;;;;;;12.73;9.93;;;;;;;14.86;100.00;98591.47;5058804;28;20242;-79
2022/05/23 02:51:50;;;;;;;12.35;10.15;;;;;;;14.95;100.00;98573.53;5051525;28;20239;-79
2022/05/23 02:54:16;;;;;;;16.92;11.75;;;;;;;15.15;100.00;98577.06;5052452;28;20205;-79
2022/05/23 02:56:43;;;;;;;13.82;12.27;;;;;;;15.22;100.00;98551.97;5071712;28;20188;-79
2022/05/23 02:59:09;;;;;;;13.70;12.35;;;;;;;15.33;100.00;98533.81;5071974;28;20303;-80
2022/05/23 03:03:01;;;;;;;13.75;12.23;;;;;;;15.32;100.00;98515.84;5071597;28;20556;-80
2022/05/23 03:04:24;;;;;;;11.95;10.73;;;;;;;14.98;100.00;98500.88;5071719;28;20543;-80
2022/05/23 03:06:51;;;;;;;12.75;10.30;;;;;;;15.18;100.00;98507.16;5071025;28;20189;-79
2022/05/23 03:09:18;;;;;;;15.70;11.40;;;;;;;15.29;100.00;98510.72;5072121;28;20191;-79
2022/05/23 03:11:44;;;;;;;13.73;11.52;;;;;;;15.48;100.00;98507.09;5055995;28;20200;-80
2022/05/23 03:14:11;;;;;;;12.07;10.88;;;;;;;15.69;100.00;98501.44;5074693;28;20197;-79
2022/05/23 03:16:37;;;;;;;15.52;10.77;;;;;;;15.68;100.00;98513.31;5075617;28;20200;-80
2022/05/23 03:19:04;;;;;;;13.57;11.00;;;;;;;15.60;100.00;98490.50;5075861;28;20209;-80
2022/05/23 03:27:00;;;;;;;12.18;10.48;;;;;;;15.37;100.00;98481.00;5075542;28;20235;-80
2022/05/23 03:29:26;;;;;;;12.90;10.88;;;;;;;15.48;100.00;98491.66;5075986;28;20181;-80
2022/05/23 03:31:53;;;;;;;13.40;9.90;;;;;;;15.43;100.00;98456.84;5074858;28;20196;-80
2022/05/23 03:34:20;;;;;;;11.40;9.43;;;;;;;15.37;100.00;98421.31;5074977;28;20189;-79
2022/05/23 03:36:48;;;;;;;15.98;9.80;;;;;;;15.31;100.00;98425.50;5075030;28;20275;-80
2022/05/23 03:39:16;;;;;;;16.20;10.80;;;;;;;15.20;100.00;98433.81;5075492;28;20342;-80
2022/05/23 03:41:42;;;;;;;14.00;11.63;;;;;;;15.29;100.00;98410.38;5075283;28;20181;-80
2022/05/23 03:44:09;;;;;;;11.18;9.70;;;;;;;15.24;100.00;98399.97;5075497;28;20235;-79
2022/05/23 03:46:37;;;;;;;13.10;10.95;;;;;;;15.42;100.00;98391.88;5075519;28;20597;-79
2022/05/23 03:49:06;;;;;;;13.57;10.80;;;;;;;15.28;100.00;98398.66;5075221;28;20251;-79
2022/05/23 03:51:33;;;;;;;12.73;10.38;;;;;;;15.31;100.00;98373.97;5074861;28;20561;-81
2022/05/23 03:54:01;;;;;;;11.60;9.32;;;;;;;15.12;100.00;98345.06;5075114;28;20533;-79
2022/05/23 03:56:28;;;;;;;15.45;10.20;;;;;;;15.30;100.00;98323.44;5074063;28;20661;-80
2022/05/23 03:58:55;;;;;;;10.82;9.52;;;;;;;15.33;100.00;98308.72;5074991;28;20228;-79
2022/05/23 04:01:24;;;;;;;11.82;10.50;;;;;;;15.42;100.00;98275.28;5074496;28;20181;-80
2022/05/23 04:03:50;;;;;;;12.13;10.00;;;;;;;15.25;100.00;98232.72;5074691;28;20232;-80
2022/05/23 04:06:17;;;;;;;10.45;9.40;;;;;;;15.18;100.00;98230.59;5074682;28;20197;-80
2022/05/23 04:08:44;;;;;;;11.70;9.95;;;;;;;15.21;100.00;98241.13;5072851;28;20203;-79
2022/05/23 04:11:11;;;;;;;14.57;10.25;;;;;;;15.49;100.00;98259.25;5074645;28;20632;-78
2022/05/23 04:13:38;;;;;;;11.43;8.40;;;;;;;15.54;100.00;98246.09;5073884;28;20199;-80
2022/05/23 04:16:05;;;;;;;10.05;8.10;;;;;;;15.44;100.00;98256.97;5074350;28;20181;-80
2022/05/23 04:18:32;;;;;;;8.82;7.82;;;;;;;15.33;100.00;98235.50;5077735;28;20733;-80
2022/05/23 04:21:01;;;;;;;10.10;7.75;;;;;;;15.34;100.00;98139.59;5093788;28;20184;-80
2022/05/23 04:23:28;;;;;;;8.13;7.30;;;;;;;15.31;100.00;98123.63;5094913;28;20587;-81
2022/05/23 04:25:55;;;;;;;12.10;9.18;;;;;;;15.20;100.00;98144.56;5076790;28;20631;-79
2022/05/23 04:28:23;;;;;;;12.30;8.90;;;;;;;15.24;100.00;98147.81;5073523;28;20203;-80
2022/05/23 04:30:49;;;;;;;13.07;11.20;;;;;;;15.51;100.00;98195.72;5073536;28;20649;-80
2022/05/23 04:36:00;;;;;;;9.57;8.20;;;;;;;15.74;100.00;98179.00;5073195;28;20204;-80
2022/05/23 04:38:27;;;;;;;8.70;7.80;;;;;;;15.66;100.00;98166.16;5073641;28;20693;-79
2022/05/23 04:40:53;;;;;;;10.20;7.78;;;;;;;15.60;100.00;98166.78;5073088;28;20201;-78
2022/05/23 04:43:20;;;;;;;10.73;8.07;;;;;;;15.52;100.00;98172.16;5073863;28;20188;-80
2022/05/23 04:45:48;;;;;;;11.88;9.02;;;;;;;15.65;100.00;98164.47;5073031;28;20635;-80
2022/05/23 04:50:59;;;;;;;11.30;7.40;;;;;;;15.88;100.00;98140.44;5072952;28;20234;-80
2022/05/23 04:53:25;;;;;;;11.10;8.70;;;;;;;15.76;100.00;98133.53;5073630;28;20211;-79
2022/05/23 04:55:52;;;;;;;8.73;6.65;;;;;;;15.86;100.00;98112.59;5073018;28;20205;-80
2022/05/23 04:58:19;;;;;;;8.15;7.18;;;;;;;15.90;100.00;98100.44;5073179;28;20304;-79
2022/05/23 05:00:45;;;;;;;11.20;7.00;;;;;;;15.84;100.00;98112.75;5073446;28;20207;-80
2022/05/23 05:03:13;;;;;;;11.52;7.30;;;;;;;15.96;100.00;98124.19;5073338;28;20192;-80
2022/05/23 05:05:40;;;;;;;7.75;6.97;;;;;;;16.20;100.00;98115.34;5072541;28;20189;-81
2022/05/23 05:08:07;;;;;;;8.57;7.78;;;;;;;16.18;100.00;98130.97;5071766;28;20635;-80
2022/05/23 05:10:33;;;;;;;7.75;6.60;;;;;;;16.45;100.00;98121.78;5056996;28;20542;-78
2022/05/23 05:13:00;;;;;;;8.73;7.13;;;;;;;16.65;100.00;98127.81;5062465;28;20631;-81
2022/05/23 05:15:28;;;;;;;8.68;7.28;;;;;;;16.63;100.00;98148.84;5072685;28;20200;-81
2022/05/23 05:17:55;;;;;;;8.73;7.85;;;;;;;16.66;100.00;98156.69;5072602;28;20267;-80
2022/05/23 05:20:24;;;;;;;9.45;7.18;;;;;;;16.81;100.00;98173.25;5072295;28;20189;-80
2022/05/23 05:22:52;;;;;;;7.88;7.03;;;;;;;16.93;100.00;98172.97;5072695;28;20198;-80
2022/05/23 05:25:19;;;;;;;8.02;7.18;;;;;;;17.21;100.00;98166.25;5072163;28;20185;-80
2022/05/23 05:27:46;;;;;;;8.05;7.25;;;;;;;17.32;100.00;98162.38;5072784;28;20187;-79
2022/05/23 05:30:19;;;;;;;9.30;7.68;;;;;;;17.37;100.00;98175.47;5072252;28;20192;-78
2022/05/23 05:32:52;;;;;;;10.32;7.65;;;;;;;17.41;100.00;98185.84;5070871;28;20255;-79
2022/05/23 05:35:25;;;;;;;8.82;7.40;;;;;;;17.59;100.00;98182.13;5071410;28;20197;-78
2022/05/23 05:37:55;;;;;;;7.38;6.68;;;;;;;17.74;100.00;98202.22;5072180;28;20187;-78
2022/05/23 05:40:25;;;;;;;10.35;7.18;;;;;;;17.91;100.00;98206.69;5072311;28;20208;-78
2022/05/23 05:42:57;;;;;;;9.55;7.93;;;;;;;17.96;100.00;98208.91;5071360;28;20198;-79
2022/05/23 05:45:29;;;;;;;9.13;8.18;;;;;;;17.89;100.00;98216.06;5071868;28;20206;-79
2022/05/23 05:47:57;;;;;;;6.72;6.13;;;;;;;17.59;100.00;98202.03;5071937;28;20264;-77
2022/05/23 05:50:28;;;;;;;9.43;7.85;;;;;;;17.64;100.00;98218.72;5071770;28;20614;-77
2022/05/23 05:52:59;;;;;;;8.60;7.80;;;;;;;17.75;100.00;98213.94;5071674;28;20196;-78
2022/05/23 05:55:26;;;;;;;7.40;6.63;;;;;;;17.90;100.00;98226.75;5071961;28;20191;-78
2022/05/23 05:57:52;;;;;;;13.63;12.15;;;;;;;18.15;100.00;98231.38;5071675;28;20213;-77
2022/05/23 06:00:20;;;;;;;9.38;6.85;;;;;;;18.13;100.00;98228.81;5071958;28;20225;-78
2022/05/23 06:02:49;;;;;;;8.70;7.85;;;;;;;18.09;100.00;98230.16;5071946;28;20187;-77
2022/05/23 06:05:15;;;;;;;6.57;5.70;;;;;;;18.48;100.00;98222.13;5071796;28;20202;-78
2022/05/23 06:13:15;;;;;;;9.80;5.60;;;;;;;18.79;100.00;98215.09;5050609;28;20203;-82
2022/05/23 06:15:42;;;;;;;7.57;5.70;;;;;;;18.72;100.00;98220.38;5068488;28;20824;-81
2022/05/23 06:18:09;;;;;;;7.75;5.95;;;;;;;18.92;100.00;98205.34;5071935;28;20978;-79
2022/05/23 06:20:36;;;;;;;5.35;4.85;;;;;;;18.60;100.00;98210.88;5071485;28;20210;-78
2022/05/23 06:23:04;;;;;;;7.20;5.40;;;;;;;18.45;100.00;98202.53;5071932;28;20188;-79
2022/05/23 06:25:32;;;;;;;6.82;4.97;;;;;;;18.52;100.00;98193.53;5072355;28;20204;-80
2022/05/23 06:27:58;;;;;;;6.60;4.78;;;;;;;18.72;100.00;98188.53;5072359;28;20196;-80
2022/05/23 06:30:26;;;;;;;7.05;5.15;;;;;;;18.70;100.00;98203.34;5071999;28;20202;-80
2022/05/23 06:32:52;;;;;;;7.10;6.30;;;;;;;18.60;100.00;98197.25;5071760;28;20321;-79
2022/05/23 06:35:21;;;;;;;7.05;5.55;;;;;;;18.67;100.00;98190.91;5071860;28;20621;-79
2022/05/23 06:37:48;;;;;;;8.60;5.75;;;;;;;18.62;100.00;98190.59;5071204;28;20230;-79
2022/05/23 06:40:17;;;;;;;8.10;5.82;;;;;;;18.53;100.00;98197.09;5071009;28;20222;-79
2022/05/23 06:42:43;;;;;;;5.40;4.90;;;;;;;18.53;100.00;98183.47;5071508;28;20606;-79
2022/05/23 06:45:11;;;;;;;9.77;5.43;;;;;;;18.59;100.00;98177.31;5070662;28;20202;-80
2022/05/23 06:47:38;;;;;;;6.20;5.60;;;;;;;18.78;100.00;98176.09;5071370;28;20187;-80
2022/05/23 06:50:06;;;;;;;7.88;5.40;;;;;;;18.99;100.00;98180.94;5071579;28;20420;-80
2022/05/23 06:52:33;;;;;;;6.10;5.50;;;;;;;19.20;100.00;98163.97;5071019;28;20241;-80
2022/05/23 06:55:00;;;;;;;8.23;5.60;;;;;;;19.24;100.00;98153.53;5071561;28;20206;-79
2022/05/23 06:57:28;;;;;;;6.82;6.15;;;;;;;19.44;100.00;98135.66;5071582;28;20282;-80
2022/05/23 06:59:54;;;;;;;8.82;6.00;;;;;;;19.15;100.00;98111.81;5071478;28;20205;-79
2022/05/23 07:02:21;;;;;;;7.18;5.30;;;;;;;19.14;100.00;98093.75;5071431;28;20183;-80
2022/05/23 07:13:01;;;;;;;28.63;12.65;;;;;;;19.30;100.00;98122.81;5071318;28;20187;-80
2022/05/23 07:15:35;;;;;;;6.43;5.10;;;;;;;19.04;100.00;98144.94;5071244;28;20192;-79
2022/05/23 07:18:03;;;;;;;5.32;4.85;;;;;;;19.46;100.00;98162.78;5071256;28;20644;-79
2022/05/23 07:20:29;;;;;;;6.50;5.28;;;;;;;19.80;100.00;98176.03;5070855;28;20317;-79
2022/05/23 07:22:56;;;;;;;8.73;5.10;;;;;;;20.01;100.00;98186.28;5071018;28;20219;-80
2022/05/23 07:25:23;;;;;;;7.65;5.55;;;;;;;20.07;100.00;98168.31;5071264;28;20196;-79
2022/05/23 07:27:49;;;;;;;7.10;5.95;;;;;;;20.25;100.00;98154.31;5071193;28;20558;-80
2022/05/23 07:30:19;;;;;;;8.05;6.10;;;;;;;20.38;100.00;98160.00;5071210;28;20275;-81
2022/05/23 07:32:46;;;;;;;6.53;5.13;;;;;;;20.17;100.00;98149.75;5070836;28;20204;-80
2022/05/23 07:35:12;;;;;;;9.80;6.57;;;;;;;20.34;100.00;98156.78;5070748;28;20522;-80
2022/05/23 07:37:39;;;;;;;5.50;5.00;;;;;;;20.72;100.00;98153.16;5071068;28;20444;-79
2022/05/23 07:40:07;;;;;;;7.33;5.27;;;;;;;20.84;100.00;98151.63;5070687;28;20479;-80
2022/05/23 07:42:33;;;;;;;6.10;4.73;;;;;;;20.94;100.00;98162.25;5070934;28;20890;-79
2022/05/23 07:45:00;;;;;;;5.50;5.00;;;;;;;21.09;99.98;98148.56;5070868;28;20446;-80
2022/05/23 07:47:28;;;;;;;6.20;5.50;;;;;;;21.32;100.00;98152.00;5070721;28;20809;-80
2022/05/23 07:49:54;;;;;;;6.83;6.27;;;;;;;21.49;98.99;98160.03;5070558;28;20434;-80
2022/05/23 07:52:21;;;;;;;6.50;5.47;;;;;;;21.20;100.00;98172.72;5070560;28;20561;-80
2022/05/23 08:03:13;;;;;;;5.73;5.23;;;;;;;21.93;94.61;98173.50;5073809;28;20478;-79
2022/05/23 08:05:40;;;;;;;5.63;4.87;;;;;;;22.01;90.42;98172.56;5074357;28;20850;-80
2022/05/23 08:08:07;;;;;;;5.70;5.20;;;;;;;22.32;87.97;98171.34;5074375;28;20772;-79
2022/05/23 08:10:34;;;;;;;6.47;5.77;;;;;;;22.48;87.65;98171.06;5074586;28;20415;-80
2022/05/23 08:13:08;;;;;;;8.33;4.80;;;;;;;22.62;85.82;98172.84;5073960;28;20442;-80
2022/05/23 08:15:37;;;;;;;7.67;4.90;;;;;;;22.74;83.76;98169.53;5073905;28;20462;-80
2022/05/23 08:18:04;;;;;;;8.00;5.20;;;;;;;23.03;82.64;98169.31;5073795;28;20442;-81
2022/05/23 08:20:32;;;;;;;5.80;5.00;;;;;;;23.57;80.06;98169.50;5073826;28;20478;-80
2022/05/23 08:22:59;;;;;;;5.30;4.80;;;;;;;23.80;76.32;98170.00;5074143;28;20778;-79
2022/05/23 08:25:26;;;;;;;4.40;4.00;;;;;;;23.85;75.68;98161.13;5074015;28;20430;-80
2022/05/23 08:27:53;;;;;;;6.60;4.37;;;;;;;23.96;75.11;98168.75;5073221;28;20521;-80
2022/05/23 08:30:20;;;;;;;5.43;4.50;;;;;;;23.83;75.41;98158.56;5073790;28;20420;-79
2022/05/23 08:32:47;;;;;;;6.43;4.73;;;;;;;23.72;76.50;98150.91;5073871;28;20411;-79
2022/05/23 08:35:14;;;;;;;8.63;4.70;;;;;;;23.47;78.83;98147.91;5073476;28;20446;-80
2022/05/23 08:37:42;;;;;;;4.70;4.30;;;;;;;23.62;77.37;98153.25;5073656;28;20418;-80
2022/05/23 08:40:11;;;;;;;5.80;5.20;;;;;;;23.78;75.33;98160.28;5073546;28;20504;-80
2022/05/23 08:42:52;;;;;;;6.30;4.27;;;;;;;23.87;73.64;98153.53;5073480;28;20419;-80
2022/05/23 08:45:22;;;;;;;6.50;4.50;;;;;;;24.08;73.53;98161.59;5073773;28;20798;-80
2022/05/23 08:48:01;;;;;;;7.73;6.33;;;;;;;24.28;71.53;98169.81;5073723;28;20908;-80
2022/05/23 08:50:40;;;;;;;5.60;4.10;;;;;;;24.26;72.83;98174.72;5073352;28;20422;-79
2022/05/23 08:53:15;;;;;;;8.20;5.83;;;;;;;24.38;72.49;98168.53;5073174;28;20446;-79
2022/05/23 08:55:46;;;;;;;4.80;3.90;;;;;;;24.46;72.36;98163.66;5073264;28;20753;-80
2022/05/23 08:58:19;;;;;;;5.97;4.60;;;;;;;24.30;73.36;98164.09;5072737;28;20439;-79
2022/05/23 09:00:51;;;;;;;6.10;5.50;;;;;;;24.34;73.29;98160.72;5073489;28;20467;-80
2022/05/23 09:03:24;;;;;;;6.83;4.30;;;;;;;24.34;73.37;98163.47;5062721;28;20443;-79
2022/05/23 09:05:56;;;;;;;7.93;4.17;;;;;;;24.31;74.11;98149.31;5072239;28;20442;-79
2022/05/23 09:08:26;;;;;;;5.73;4.30;;;;;;;24.41;73.21;98146.97;5072656;28;20774;-80
2022/05/23 09:10:58;;;;;;;5.00;4.50;;;;;;;24.40;72.60;98147.16;5072729;28;20434;-80
2022/05/23 09:13:27;;;;;;;6.27;4.93;;;;;;;24.34;73.55;98138.72;5055695;28;20922;-80
2022/05/23 09:15:59;;;;;;;6.93;4.40;;;;;;;24.31;73.93;98133.66;5052721;28;20878;-79
2022/05/23 09:18:28;;;;;;;7.87;6.27;;;;;;;24.29;75.65;98123.94;5072874;28;20771;-80
2022/05/23 09:21:00;;;;;;;6.03;4.73;;;;;;;24.03;77.13;98102.78;5072785;28;20470;-80
2022/05/23 09:23:32;;;;;;;9.10;5.03;;;;;;;23.58;79.89;98097.03;5072596;28;20889;-80
2022/05/23 09:26:02;;;;;;;12.07;7.03;;;;;;;23.10;92.68;98082.34;5072768;28;20434;-80
2022/05/23 09:28:33;;;;;;;6.47;4.90;;;;;;;22.89;93.63;98079.72;5072527;28;20433;-83
2022/05/23 09:31:04;;;;;;;11.83;6.70;;;;;;;23.01;99.99;98072.59;5073982;28;20445;-86
2022/05/23 09:33:31;;;;;;;6.73;5.77;;;;;;;22.72;100.00;98068.22;5072837;28;20446;-87
2022/05/23 09:36:11;;;;;;;5.70;4.70;;;;;;;22.70;96.91;98059.34;5072386;28;20467;-85
2022/05/23 09:38:53;;;;;;;7.07;4.60;;;;;;;22.82;97.45;98038.53;5072501;28;20431;-83
2022/05/23 09:41:29;;;;;;;6.40;4.70;;;;;;;22.81;100.00;98028.59;5072181;28;20497;-83
2022/05/23 09:49:30;;;;;;;6.13;5.50;;;;;;;22.94;100.00;97991.28;5071918;28;20936;-79
2022/05/23 09:51:59;;;;;;;6.77;5.90;;;;;;;23.42;100.00;98015.88;5071752;28;20531;-80
2022/05/23 09:54:30;;;;;;;6.50;4.83;;;;;;;23.82;96.31;98037.91;5072620;28;20425;-83
2022/05/23 09:57:00;;;;;;;8.43;5.60;;;;;;;24.19;96.40;98027.28;5072088;28;20427;-81
2022/05/23 09:59:31;;;;;;;5.73;5.10;;;;;;;24.60;92.90;98032.47;5071655;28;20423;-82
2022/05/23 10:02:02;;;;;;;9.00;5.70;;;;;;;24.92;90.23;98047.16;5065776;28;20770;-81
2022/05/23 10:04:31;;;;;;;6.50;5.13;;;;;;;25.01;83.74;98024.88;5051994;28;20511;-79
2022/05/23 10:06:58;;;;;;;7.67;5.10;;;;;;;24.77;87.22;98017.16;5052219;28;20426;-81
2022/05/23 10:09:31;;;;;;;7.20;5.60;;;;;;;24.65;83.73;98013.41;5051638;28;20455;-82
2022/05/23 10:12:00;;;;;;;5.20;4.70;;;;;;;24.60;82.87;98031.63;5051684;28;20420;-82
2022/05/23 10:14:44;;;;;;;4.90;4.13;;;;;;;24.94;82.88;98039.53;5051452;28;20434;-80
2022/05/23 10:17:25;;;;;;;9.17;5.73;;;;;;;25.47;78.25;98040.31;5066224;28;20449;-84
2022/05/23 10:19:51;;;;;;;5.33;4.03;;;;;;;25.83;73.77;98049.78;5071213;28;20807;-83
2022/05/23 10:22:22;;;;;;;6.47;4.37;;;;;;;26.05;73.68;98048.34;5071710;28;20949;-82
2022/05/23 10:24:55;;;;;;;7.37;4.73;;;;;;;26.03;72.13;98052.38;5071389;28;20435;-83
2022/05/23 10:27:35;;;;;;;7.27;5.23;;;;;;;26.12;72.11;98070.34;5071780;28;21415;-82
2022/05/23 10:30:06;;;;;;;6.40;4.63;;;;;;;26.27;71.79;98070.81;5070323;28;20431;-82
2022/05/23 10:32:41;;;;;;;7.17;4.83;;;;;;;25.76;72.28;98064.44;5050935;28;20434;-82
2022/05/23 10:35:14;;;;;;;6.30;4.50;;;;;;;25.51;74.89;98045.16;5052276;28;20428;-81
2022/05/23 10:37:42;;;;;;;7.17;6.23;;;;;;;25.30;78.81;98067.53;5059915;28;20440;-84
2022/05/23 10:43:04;;;;;;;7.07;5.63;;;;;;;25.13;82.94;98051.50;5071089;28;20403;-84
2022/05/23 10:45:33;;;;;;;7.23;5.00;;;;;;;24.95;82.67;98065.16;5071265;28;20939;-82
2022/05/23 10:48:14;;;;;;;6.47;4.70;;;;;;;24.54;83.12;98093.88;5071772;28;20509;-83
2022/05/23 10:50:50;;;;;;;5.80;4.80;;;;;;;24.13;87.35;98093.06;5071120;28;20893;-81
2022/05/23 10:53:37;;;;;;;8.43;5.83;;;;;;;24.16;91.82;98086.28;5071170;28;20418;-79
2022/05/23 10:56:15;;;;;;;7.00;5.37;;;;;;;23.70;91.28;98087.13;5071351;28;20427;-78
2022/05/23 10:58:45;;;;;;;7.27;5.63;;;;;;;24.16;88.59;98080.78;5070777;28;20517;-82
2022/05/23 11:01:28;;;;;;;7.03;5.27;;;;;;;24.42;87.50;98079.03;5051177;28;21011;-80
2022/05/23 11:04:08;;;;;;;8.40;6.00;;;;;;;24.57;85.13;98054.06;5050919;28;20506;-83
2022/05/23 11:06:46;;;;;;;9.67;5.80;;;;;;;24.74;84.48;98055.28;5051127;28;20916;-80
2022/05/23 11:09:28;;;;;;;6.67;5.23;;;;;;;25.06;83.54;98050.69;5067489;28;20442;-80
2022/05/23 11:12:12;;;;;;;14.90;4.87;;;;;;;25.38;79.48;98046.06;5069344;28;20432;-79
2022/05/23 11:14:53;;;;;;;5.87;4.70;;;;;;;25.41;78.75;98058.56;5063171;28;20463;-78
2022/05/23 11:17:33;;;;;;;11.90;8.50;;;;;;;25.38;78.67;98054.34;5071184;28;20458;-78
2022/05/23 11:20:11;;;;;;;6.40;5.00;;;;;;;25.64;79.57;98049.69;5071285;28;20959;-79
2022/05/23 11:22:42;;;;;;;11.07;7.40;;;;;;;25.78;77.77;98047.69;5073373;28;20430;-80
2022/05/23 11:25:23;;;;;;;5.93;5.23;;;;;;;25.49;78.25;98040.94;5070979;28;20787;-79
2022/05/23 11:33:45;;;;;;;6.90;4.43;;;;;;;25.26;79.21;98035.97;5074278;28;20418;-82
2022/05/23 11:36:15;;;;;;;7.33;4.50;;;;;;;25.06;81.29;98034.16;5073928;28;20915;-79
2022/05/23 11:38:47;;;;;;;8.83;4.90;;;;;;;24.93;82.92;98025.97;5074064;28;20976;-79
2022/05/23 11:41:31;;;;;;;7.30;5.03;;;;;;;24.52;86.87;98002.47;5073946;28;20485;-80
2022/05/23 11:43:59;;;;;;;11.47;8.30;;;;;;;24.22;88.72;97991.09;5073921;28;20446;-79
2022/05/23 11:46:28;;;;;;;14.70;12.00;;;;;;;24.22;89.29;97993.84;5074398;28;20445;-79
2022/05/23 11:48:58;;;;;;;14.37;12.57;;;;;;;24.57;88.14;97988.88;5074090;28;20790;-79
2022/05/23 11:51:41;;;;;;;8.27;4.83;;;;;;;24.38;88.05;97987.00;5073106;28;20470;-78
2022/05/23 11:54:38;;;;;;;7.87;5.27;;;;;;;24.32;89.62;97992.31;5073844;28;20492;-79
2022/05/23 11:57:16;;;;;;;7.63;4.90;;;;;;;24.66;86.29;97987.56;5058939;28;20514;-82
2022/05/23 12:00:15;;;;;;;8.47;5.30;;;;;;;25.09;84.63;97977.81;5073999;28;20427;-82
2022/05/23 12:03:07;;;;;;;8.50;5.17;;;;;;;25.79;79.57;97981.28;5074041;28;20923;-82
2022/05/23 12:05:35;;;;;;;5.27;4.77;;;;;;;25.52;79.81;97977.94;5074502;28;20419;-82
2022/05/23 12:08:29;;;;;;;7.53;4.77;;;;;;;25.27;82.61;97960.56;5074289;28;20518;-83
2022/05/23 12:11:00;;;;;;;8.97;5.17;;;;;;;25.37;81.59;97959.00;5074698;28;20774;-82
2022/05/23 12:13:39;;;;;;;7.80;5.10;;;;;;;25.29;81.90;97959.25;5074369;28;20771;-81
2022/05/23 12:16:37;;;;;;;10.53;5.40;;;;;;;25.65;80.67;97962.38;5072773;28;20458;-82
2022/05/23 12:19:32;;;;;;;9.50;5.47;;;;;;;26.24;76.78;97957.34;5055912;28;21293;-84
2022/05/23 12:22:27;;;;;;;10.60;4.70;;;;;;;26.77;71.21;97962.22;5073918;28;20990;-81
2022/05/23 12:25:25;;;;;;;8.37;4.80;;;;;;;27.29;69.22;97950.63;5072775;28;20949;-80
2022/05/23 12:28:17;;;;;;;7.93;5.57;;;;;;;27.16;69.32;97930.41;5064589;28;20455;-83
2022/05/23 12:31:07;;;;;;;7.97;5.20;;;;;;;26.98;69.84;97925.81;5061518;28;20448;-83
2022/05/23 12:33:35;;;;;;;5.93;5.00;;;;;;;26.93;70.55;97931.19;5054575;28;20424;-82